sensor_id;sensor_type;location;lat;lon;timestamp;P1;durP1;ratioP1;P2;durP2;ratioP2
67571;SDS011;54397;47.506;19.158;2023-02-08T00:00:06;37.20;;;20.37;;
67571;SDS011;54397;47.506;19.158;2023-02-08T00:03:31;34.13;;;19.73;;
67571;SDS011;54397;47.506;19.158;2023-02-08T00:06:53;37.40;;;19.77;;
67571;SDS011;54397;47.506;19.158;2023-02-08T00:10:17;34.63;;;18.83;;
67571;SDS011;54397;47.506;19.158;2023-02-08T00:13:39;37.13;;;19.77;;
67571;SDS011;54397;47.506;19.158;2023-02-08T00:17:02;41.37;;;19.73;;
67571;SDS011;54397;47.506;19.158;2023-02-08T00:20:26;37.83;;;17.90;;
67571;SDS011;54397;47.506;19.158;2023-02-08T00:23:51;38.83;;;20.10;;
67571;SDS011;54397;47.506;19.158;2023-02-08T00:27:15;37.33;;;19.80;;
67571;SDS011;54397;47.506;19.158;2023-02-08T00:30:40;35.07;;;19.00;;
67571;SDS011;54397;47.506;19.158;2023-02-08T00:34:05;37.67;;;19.27;;
67571;SDS011;54397;47.506;19.158;2023-02-08T00:37:27;38.17;;;19.23;;
67571;SDS011;54397;47.506;19.158;2023-02-08T00:40:48;31.47;;;18.67;;
67571;SDS011;54397;47.506;19.158;2023-02-08T00:44:10;34.30;;;18.37;;
67571;SDS011;54397;47.506;19.158;2023-02-08T00:47:32;33.67;;;18.13;;
67571;SDS011;54397;47.506;19.158;2023-02-08T00:50:59;37.40;;;18.77;;
67571;SDS011;54397;47.506;19.158;2023-02-08T00:54:24;39.30;;;20.13;;
67571;SDS011;54397;47.506;19.158;2023-02-08T00:57:45;35.07;;;18.63;;
67571;SDS011;54397;47.506;19.158;2023-02-08T01:01:07;34.93;;;18.80;;
67571;SDS011;54397;47.506;19.158;2023-02-08T01:04:29;90.20;;;43.17;;
67571;SDS011;54397;47.506;19.158;2023-02-08T01:07:51;57.93;;;25.53;;
67571;SDS011;54397;47.506;19.158;2023-02-08T01:11:16;33.47;;;16.93;;
67571;SDS011;54397;47.506;19.158;2023-02-08T01:14:40;31.27;;;17.20;;
67571;SDS011;54397;47.506;19.158;2023-02-08T01:18:02;30.30;;;16.20;;
67571;SDS011;54397;47.506;19.158;2023-02-08T01:21:42;31.43;;;15.93;;
67571;SDS011;54397;47.506;19.158;2023-02-08T01:25:06;30.03;;;16.47;;
67571;SDS011;54397;47.506;19.158;2023-02-08T01:28:28;32.00;;;16.47;;
67571;SDS011;54397;47.506;19.158;2023-02-08T01:31:50;25.97;;;15.47;;
67571;SDS011;54397;47.506;19.158;2023-02-08T01:35:11;26.30;;;15.77;;
67571;SDS011;54397;47.506;19.158;2023-02-08T01:38:34;28.43;;;16.00;;
67571;SDS011;54397;47.506;19.158;2023-02-08T01:41:59;28.47;;;15.93;;
67571;SDS011;54397;47.506;19.158;2023-02-08T01:45:23;34.47;;;16.60;;
67571;SDS011;54397;47.506;19.158;2023-02-08T01:48:46;31.27;;;16.30;;
67571;SDS011;54397;47.506;19.158;2023-02-08T01:52:15;31.90;;;17.37;;
67571;SDS011;54397;47.506;19.158;2023-02-08T01:55:41;33.87;;;16.80;;
67571;SDS011;54397;47.506;19.158;2023-02-08T01:59:11;29.77;;;16.90;;
67571;SDS011;54397;47.506;19.158;2023-02-08T02:02:36;33.38;;;17.27;;
67571;SDS011;54397;47.506;19.158;2023-02-08T02:06:07;30.60;;;16.83;;
67571;SDS011;54397;47.506;19.158;2023-02-08T02:13:14;29.40;;;16.43;;
67571;SDS011;54397;47.506;19.158;2023-02-08T02:16:39;35.93;;;17.20;;
67571;SDS011;54397;47.506;19.158;2023-02-08T02:20:13;28.97;;;16.90;;
67571;SDS011;54397;47.506;19.158;2023-02-08T02:27:36;29.90;;;15.27;;
67571;SDS011;54397;47.506;19.158;2023-02-08T02:38:13;28.93;;;13.80;;
67571;SDS011;54397;47.506;19.158;2023-02-08T02:45:34;23.77;;;13.40;;
67571;SDS011;54397;47.506;19.158;2023-02-08T02:53:19;23.40;;;13.43;;
67571;SDS011;54397;47.506;19.158;2023-02-08T02:57:01;24.08;;;12.55;;
67571;SDS011;54397;47.506;19.158;2023-02-08T03:00:26;22.10;;;12.33;;
67571;SDS011;54397;47.506;19.158;2023-02-08T03:03:49;23.03;;;11.80;;
67571;SDS011;54397;47.506;19.158;2023-02-08T03:07:21;19.37;;;11.47;;
67571;SDS011;54397;47.506;19.158;2023-02-08T03:14:23;20.80;;;11.30;;
67571;SDS011;54397;47.506;19.158;2023-02-08T03:21:50;27.40;;;12.20;;
67571;SDS011;54397;47.506;19.158;2023-02-08T03:25:20;24.53;;;11.87;;
67571;SDS011;54397;47.506;19.158;2023-02-08T03:32:23;20.03;;;11.13;;
67571;SDS011;54397;47.506;19.158;2023-02-08T03:35:53;19.43;;;10.70;;
67571;SDS011;54397;47.506;19.158;2023-02-08T03:39:22;22.23;;;10.40;;
67571;SDS011;54397;47.506;19.158;2023-02-08T03:42:47;17.17;;;9.87;;
67571;SDS011;54397;47.506;19.158;2023-02-08T03:49:38;16.53;;;10.17;;
67571;SDS011;54397;47.506;19.158;2023-02-08T03:53:00;15.17;;;9.20;;
67571;SDS011;54397;47.506;19.158;2023-02-08T03:56:29;16.97;;;9.87;;
67571;SDS011;54397;47.506;19.158;2023-02-08T04:00:08;17.13;;;9.03;;
67571;SDS011;54397;47.506;19.158;2023-02-08T04:03:35;18.73;;;9.50;;
67571;SDS011;54397;47.506;19.158;2023-02-08T04:07:00;16.10;;;9.77;;
67571;SDS011;54397;47.506;19.158;2023-02-08T04:10:24;18.63;;;9.27;;
67571;SDS011;54397;47.506;19.158;2023-02-08T04:13:48;13.97;;;8.83;;
67571;SDS011;54397;47.506;19.158;2023-02-08T04:17:15;51.43;;;24.67;;
67571;SDS011;54397;47.506;19.158;2023-02-08T04:20:36;33.17;;;17.40;;
67571;SDS011;54397;47.506;19.158;2023-02-08T04:23:58;19.50;;;9.77;;
67571;SDS011;54397;47.506;19.158;2023-02-08T04:27:21;16.33;;;9.00;;
67571;SDS011;54397;47.506;19.158;2023-02-08T04:30:42;18.20;;;10.27;;
67571;SDS011;54397;47.506;19.158;2023-02-08T04:34:04;20.23;;;10.13;;
67571;SDS011;54397;47.506;19.158;2023-02-08T04:37:26;20.47;;;9.17;;
67571;SDS011;54397;47.506;19.158;2023-02-08T04:40:50;17.70;;;8.90;;
67571;SDS011;54397;47.506;19.158;2023-02-08T04:44:14;13.17;;;7.87;;
67571;SDS011;54397;47.506;19.158;2023-02-08T04:47:39;15.70;;;8.30;;
67571;SDS011;54397;47.506;19.158;2023-02-08T04:51:00;16.70;;;8.43;;
67571;SDS011;54397;47.506;19.158;2023-02-08T04:54:24;17.00;;;7.97;;
67571;SDS011;54397;47.506;19.158;2023-02-08T04:57:46;15.37;;;8.30;;
67571;SDS011;54397;47.506;19.158;2023-02-08T05:01:08;15.20;;;7.83;;
67571;SDS011;54397;47.506;19.158;2023-02-08T05:04:32;16.10;;;9.03;;
67571;SDS011;54397;47.506;19.158;2023-02-08T05:07:54;13.40;;;8.37;;
67571;SDS011;54397;47.506;19.158;2023-02-08T05:11:19;20.17;;;9.77;;
67571;SDS011;54397;47.506;19.158;2023-02-08T05:14:44;17.20;;;9.27;;
67571;SDS011;54397;47.506;19.158;2023-02-08T05:18:06;16.97;;;9.37;;
67571;SDS011;54397;47.506;19.158;2023-02-08T05:21:27;15.03;;;8.70;;
67571;SDS011;54397;47.506;19.158;2023-02-08T05:24:52;17.60;;;8.67;;
67571;SDS011;54397;47.506;19.158;2023-02-08T05:28:16;38.23;;;16.00;;
67571;SDS011;54397;47.506;19.158;2023-02-08T05:31:38;18.27;;;10.03;;
67571;SDS011;54397;47.506;19.158;2023-02-08T05:35:02;17.93;;;8.57;;
67571;SDS011;54397;47.506;19.158;2023-02-08T05:38:24;15.67;;;9.40;;
67571;SDS011;54397;47.506;19.158;2023-02-08T05:41:45;16.73;;;9.00;;
67571;SDS011;54397;47.506;19.158;2023-02-08T05:45:10;17.73;;;9.70;;
67571;SDS011;54397;47.506;19.158;2023-02-08T05:48:31;17.10;;;10.17;;
67571;SDS011;54397;47.506;19.158;2023-02-08T05:51:53;17.50;;;10.10;;
67571;SDS011;54397;47.506;19.158;2023-02-08T05:55:15;18.73;;;10.23;;
67571;SDS011;54397;47.506;19.158;2023-02-08T05:58:37;17.87;;;9.30;;
67571;SDS011;54397;47.506;19.158;2023-02-08T06:01:58;14.23;;;7.93;;
67571;SDS011;54397;47.506;19.158;2023-02-08T06:05:20;15.67;;;8.63;;
67571;SDS011;54397;47.506;19.158;2023-02-08T06:08:42;20.57;;;9.27;;
67571;SDS011;54397;47.506;19.158;2023-02-08T06:12:06;19.47;;;9.43;;
67571;SDS011;54397;47.506;19.158;2023-02-08T06:15:30;15.87;;;10.20;;
67571;SDS011;54397;47.506;19.158;2023-02-08T06:18:51;17.80;;;9.57;;
67571;SDS011;54397;47.506;19.158;2023-02-08T06:22:13;18.13;;;9.67;;
67571;SDS011;54397;47.506;19.158;2023-02-08T06:25:37;16.17;;;9.17;;
67571;SDS011;54397;47.506;19.158;2023-02-08T06:29:01;17.33;;;9.50;;
67571;SDS011;54397;47.506;19.158;2023-02-08T06:32:24;22.87;;;10.33;;
67571;SDS011;54397;47.506;19.158;2023-02-08T06:35:47;17.73;;;9.53;;
67571;SDS011;54397;47.506;19.158;2023-02-08T06:39:11;24.70;;;9.97;;
67571;SDS011;54397;47.506;19.158;2023-02-08T06:42:33;18.57;;;9.67;;
67571;SDS011;54397;47.506;19.158;2023-02-08T06:45:54;20.40;;;9.77;;
67571;SDS011;54397;47.506;19.158;2023-02-08T06:49:16;23.20;;;10.10;;
67571;SDS011;54397;47.506;19.158;2023-02-08T06:52:40;19.47;;;10.30;;
67571;SDS011;54397;47.506;19.158;2023-02-08T06:56:02;20.73;;;9.80;;
67571;SDS011;54397;47.506;19.158;2023-02-08T06:59:23;17.57;;;9.13;;
67571;SDS011;54397;47.506;19.158;2023-02-08T07:02:47;27.33;;;9.67;;
67571;SDS011;54397;47.506;19.158;2023-02-08T07:06:16;15.90;;;9.10;;
67571;SDS011;54397;47.506;19.158;2023-02-08T07:09:39;19.27;;;8.80;;
67571;SDS011;54397;47.506;19.158;2023-02-08T07:13:03;19.27;;;10.33;;
67571;SDS011;54397;47.506;19.158;2023-02-08T07:16:24;16.77;;;8.93;;
67571;SDS011;54397;47.506;19.158;2023-02-08T07:19:46;15.67;;;8.50;;
67571;SDS011;54397;47.506;19.158;2023-02-08T07:23:10;15.83;;;8.23;;
67571;SDS011;54397;47.506;19.158;2023-02-08T07:26:35;14.50;;;8.27;;
67571;SDS011;54397;47.506;19.158;2023-02-08T07:29:56;17.93;;;11.27;;
67571;SDS011;54397;47.506;19.158;2023-02-08T07:33:18;14.77;;;8.60;;
67571;SDS011;54397;47.506;19.158;2023-02-08T07:36:40;16.27;;;9.10;;
67571;SDS011;54397;47.506;19.158;2023-02-08T07:40:02;14.23;;;8.10;;
67571;SDS011;54397;47.506;19.158;2023-02-08T07:43:23;16.13;;;9.17;;
67571;SDS011;54397;47.506;19.158;2023-02-08T07:46:47;14.17;;;8.83;;
67571;SDS011;54397;47.506;19.158;2023-02-08T07:50:12;16.33;;;8.57;;
67571;SDS011;54397;47.506;19.158;2023-02-08T07:53:34;17.07;;;9.07;;
67571;SDS011;54397;47.506;19.158;2023-02-08T07:56:56;16.10;;;8.57;;
67571;SDS011;54397;47.506;19.158;2023-02-08T08:00:23;15.20;;;8.90;;
67571;SDS011;54397;47.506;19.158;2023-02-08T08:03:47;15.57;;;8.13;;
67571;SDS011;54397;47.506;19.158;2023-02-08T08:07:09;15.87;;;8.87;;
67571;SDS011;54397;47.506;19.158;2023-02-08T08:10:34;18.90;;;9.13;;
67571;SDS011;54397;47.506;19.158;2023-02-08T08:13:58;17.07;;;9.53;;
67571;SDS011;54397;47.506;19.158;2023-02-08T08:17:22;18.20;;;9.27;;
67571;SDS011;54397;47.506;19.158;2023-02-08T08:20:46;17.33;;;9.03;;
67571;SDS011;54397;47.506;19.158;2023-02-08T08:24:10;15.00;;;9.60;;
67571;SDS011;54397;47.506;19.158;2023-02-08T08:27:32;15.10;;;8.73;;
67571;SDS011;54397;47.506;19.158;2023-02-08T08:30:55;12.20;;;7.10;;
67571;SDS011;54397;47.506;19.158;2023-02-08T08:34:17;13.37;;;6.33;;
67571;SDS011;54397;47.506;19.158;2023-02-08T08:37:39;10.83;;;6.87;;
67571;SDS011;54397;47.506;19.158;2023-02-08T08:41:05;10.57;;;6.30;;
67571;SDS011;54397;47.506;19.158;2023-02-08T08:44:30;11.18;;;7.13;;
67571;SDS011;54397;47.506;19.158;2023-02-08T08:47:52;13.07;;;6.40;;
67571;SDS011;54397;47.506;19.158;2023-02-08T08:51:14;11.37;;;6.80;;
67571;SDS011;54397;47.506;19.158;2023-02-08T08:54:35;12.23;;;6.20;;
67571;SDS011;54397;47.506;19.158;2023-02-08T08:57:57;9.53;;;5.97;;
67571;SDS011;54397;47.506;19.158;2023-02-08T09:01:19;9.23;;;5.80;;
67571;SDS011;54397;47.506;19.158;2023-02-08T09:04:41;9.47;;;5.97;;
67571;SDS011;54397;47.506;19.158;2023-02-08T09:08:02;13.80;;;6.50;;
67571;SDS011;54397;47.506;19.158;2023-02-08T09:11:24;9.70;;;5.80;;
67571;SDS011;54397;47.506;19.158;2023-02-08T09:14:50;8.43;;;5.77;;
67571;SDS011;54397;47.506;19.158;2023-02-08T09:18:12;11.90;;;6.43;;
67571;SDS011;54397;47.506;19.158;2023-02-08T09:21:36;9.67;;;5.83;;
67571;SDS011;54397;47.506;19.158;2023-02-08T09:25:00;9.53;;;6.03;;
67571;SDS011;54397;47.506;19.158;2023-02-08T09:28:25;8.70;;;5.90;;
67571;SDS011;54397;47.506;19.158;2023-02-08T09:31:46;10.17;;;5.97;;
67571;SDS011;54397;47.506;19.158;2023-02-08T09:35:08;13.17;;;6.63;;
67571;SDS011;54397;47.506;19.158;2023-02-08T09:38:31;8.47;;;5.73;;
67571;SDS011;54397;47.506;19.158;2023-02-08T09:45:26;10.23;;;6.17;;
67571;SDS011;54397;47.506;19.158;2023-02-08T09:49:15;9.93;;;6.07;;
67571;SDS011;54397;47.506;19.158;2023-02-08T09:52:46;8.57;;;6.00;;
67571;SDS011;54397;47.506;19.158;2023-02-08T09:56:15;11.37;;;6.60;;
67571;SDS011;54397;47.506;19.158;2023-02-08T09:59:45;9.90;;;6.37;;
67571;SDS011;54397;47.506;19.158;2023-02-08T10:06:43;8.77;;;6.43;;
67571;SDS011;54397;47.506;19.158;2023-02-08T10:10:15;10.00;;;6.23;;
67571;SDS011;54397;47.506;19.158;2023-02-08T10:21:27;13.90;;;6.80;;
67571;SDS011;54397;47.506;19.158;2023-02-08T10:25:19;11.30;;;6.70;;
67571;SDS011;54397;47.506;19.158;2023-02-08T10:36:15;12.30;;;7.05;;
67571;SDS011;54397;47.506;19.158;2023-02-08T10:39:40;11.48;;;6.85;;
67571;SDS011;54397;47.506;19.158;2023-02-08T10:43:04;11.90;;;7.25;;
67571;SDS011;54397;47.506;19.158;2023-02-08T10:46:40;10.65;;;7.13;;
67571;SDS011;54397;47.506;19.158;2023-02-08T10:50:19;10.02;;;6.55;;
67571;SDS011;54397;47.506;19.158;2023-02-08T10:53:45;10.75;;;7.18;;
67571;SDS011;54397;47.506;19.158;2023-02-08T10:57:14;9.95;;;6.55;;
67571;SDS011;54397;47.506;19.158;2023-02-08T11:00:40;10.70;;;6.72;;
67571;SDS011;54397;47.506;19.158;2023-02-08T11:04:10;12.10;;;6.63;;
67571;SDS011;54397;47.506;19.158;2023-02-08T11:07:33;10.05;;;6.30;;
67571;SDS011;54397;47.506;19.158;2023-02-08T11:14:22;9.93;;;6.68;;
67571;SDS011;54397;47.506;19.158;2023-02-08T11:18:06;9.48;;;6.40;;
67571;SDS011;54397;47.506;19.158;2023-02-08T11:21:41;10.88;;;7.03;;
67571;SDS011;54397;47.506;19.158;2023-02-08T11:25:06;10.93;;;6.88;;
67571;SDS011;54397;47.506;19.158;2023-02-08T11:28:29;9.13;;;6.00;;
67571;SDS011;54397;47.506;19.158;2023-02-08T11:38:44;10.98;;;6.75;;
67571;SDS011;54397;47.506;19.158;2023-02-08T11:42:05;9.60;;;6.57;;
67571;SDS011;54397;47.506;19.158;2023-02-08T11:45:29;8.25;;;6.50;;
67571;SDS011;54397;47.506;19.158;2023-02-08T11:48:55;8.02;;;5.93;;
67571;SDS011;54397;47.506;19.158;2023-02-08T11:52:19;10.63;;;6.47;;
67571;SDS011;54397;47.506;19.158;2023-02-08T11:59:34;11.68;;;7.20;;
67571;SDS011;54397;47.506;19.158;2023-02-08T12:03:18;10.15;;;7.00;;
67571;SDS011;54397;47.506;19.158;2023-02-08T12:17:40;8.93;;;6.10;;
67571;SDS011;54397;47.506;19.158;2023-02-08T12:21:25;9.90;;;6.53;;
67571;SDS011;54397;47.506;19.158;2023-02-08T12:39:38;9.43;;;6.28;;
67571;SDS011;54397;47.506;19.158;2023-02-08T12:53:56;10.45;;;7.00;;
67571;SDS011;54397;47.506;19.158;2023-02-08T12:57:24;9.07;;;6.38;;
67571;SDS011;54397;47.506;19.158;2023-02-08T13:00:51;8.85;;;7.30;;
67571;SDS011;54397;47.506;19.158;2023-02-08T13:07:49;10.45;;;6.65;;
67571;SDS011;54397;47.506;19.158;2023-02-08T13:11:35;10.35;;;6.78;;
67571;SDS011;54397;47.506;19.158;2023-02-08T13:15:10;9.18;;;6.50;;
67571;SDS011;54397;47.506;19.158;2023-02-08T13:18:56;9.03;;;6.60;;
67571;SDS011;54397;47.506;19.158;2023-02-08T13:22:40;6.82;;;5.10;;
67571;SDS011;54397;47.506;19.158;2023-02-08T13:26:05;7.90;;;4.93;;
67571;SDS011;54397;47.506;19.158;2023-02-08T13:29:29;7.47;;;5.37;;
67571;SDS011;54397;47.506;19.158;2023-02-08T13:32:53;10.17;;;6.00;;
67571;SDS011;54397;47.506;19.158;2023-02-08T13:36:18;8.07;;;5.00;;
67571;SDS011;54397;47.506;19.158;2023-02-08T13:39:48;7.97;;;5.20;;
67571;SDS011;54397;47.506;19.158;2023-02-08T13:43:22;6.90;;;4.90;;
67571;SDS011;54397;47.506;19.158;2023-02-08T13:46:56;8.13;;;5.37;;
67571;SDS011;54397;47.506;19.158;2023-02-08T13:51:01;7.20;;;4.60;;
67571;SDS011;54397;47.506;19.158;2023-02-08T13:54:04;9.17;;;5.13;;
67571;SDS011;54397;47.506;19.158;2023-02-08T13:57:52;7.47;;;5.13;;
67571;SDS011;54397;47.506;19.158;2023-02-08T14:01:18;7.57;;;5.10;;
67571;SDS011;54397;47.506;19.158;2023-02-08T14:04:45;7.93;;;4.97;;
67571;SDS011;54397;47.506;19.158;2023-02-08T14:08:15;8.33;;;4.40;;
67571;SDS011;54397;47.506;19.158;2023-02-08T14:11:47;6.33;;;4.47;;
67571;SDS011;54397;47.506;19.158;2023-02-08T14:18:37;7.83;;;4.30;;
67571;SDS011;54397;47.506;19.158;2023-02-08T14:22:13;7.40;;;4.77;;
67571;SDS011;54397;47.506;19.158;2023-02-08T14:25:43;7.80;;;5.50;;
67571;SDS011;54397;47.506;19.158;2023-02-08T14:29:16;7.03;;;5.20;;
67571;SDS011;54397;47.506;19.158;2023-02-08T14:36:27;8.17;;;4.80;;
67571;SDS011;54397;47.506;19.158;2023-02-08T14:43:46;8.67;;;5.00;;
67571;SDS011;54397;47.506;19.158;2023-02-08T14:50:51;7.43;;;5.30;;
67571;SDS011;54397;47.506;19.158;2023-02-08T14:58:09;7.67;;;5.43;;
67571;SDS011;54397;47.506;19.158;2023-02-08T15:05:21;7.87;;;5.03;;
67571;SDS011;54397;47.506;19.158;2023-02-08T15:08:49;10.43;;;5.30;;
67571;SDS011;54397;47.506;19.158;2023-02-08T15:15:42;9.53;;;5.73;;
67571;SDS011;54397;47.506;19.158;2023-02-08T15:19:06;53.00;;;7.00;;
67571;SDS011;54397;47.506;19.158;2023-02-08T15:22:36;9.20;;;5.43;;
67571;SDS011;54397;47.506;19.158;2023-02-08T15:26:01;10.47;;;6.53;;
67571;SDS011;54397;47.506;19.158;2023-02-08T15:29:25;9.10;;;5.97;;
67571;SDS011;54397;47.506;19.158;2023-02-08T15:33:08;10.27;;;5.57;;
67571;SDS011;54397;47.506;19.158;2023-02-08T15:36:35;10.50;;;5.77;;
67571;SDS011;54397;47.506;19.158;2023-02-08T15:39:58;9.70;;;5.90;;
67571;SDS011;54397;47.506;19.158;2023-02-08T15:43:23;9.83;;;5.70;;
67571;SDS011;54397;47.506;19.158;2023-02-08T15:46:45;8.90;;;5.67;;
67571;SDS011;54397;47.506;19.158;2023-02-08T15:50:14;9.83;;;5.70;;
67571;SDS011;54397;47.506;19.158;2023-02-08T15:53:43;10.27;;;5.60;;
67571;SDS011;54397;47.506;19.158;2023-02-08T15:57:07;11.20;;;6.07;;
67571;SDS011;54397;47.506;19.158;2023-02-08T16:00:40;12.60;;;7.57;;
67571;SDS011;54397;47.506;19.158;2023-02-08T16:04:04;20.37;;;9.40;;
67571;SDS011;54397;47.506;19.158;2023-02-08T16:07:42;50.90;;;26.93;;
67571;SDS011;54397;47.506;19.158;2023-02-08T16:11:13;17.33;;;10.10;;
67571;SDS011;54397;47.506;19.158;2023-02-08T16:14:42;14.47;;;7.93;;
67571;SDS011;54397;47.506;19.158;2023-02-08T16:21:53;13.50;;;7.27;;
67571;SDS011;54397;47.506;19.158;2023-02-08T16:25:42;13.17;;;7.73;;
67571;SDS011;54397;47.506;19.158;2023-02-08T16:29:06;12.57;;;7.47;;
67571;SDS011;54397;47.506;19.158;2023-02-08T16:32:36;14.83;;;8.00;;
67571;SDS011;54397;47.506;19.158;2023-02-08T16:36:00;13.97;;;7.80;;
67571;SDS011;54397;47.506;19.158;2023-02-08T16:39:33;15.27;;;9.07;;
67571;SDS011;54397;47.506;19.158;2023-02-08T16:46:52;20.37;;;9.53;;
67571;SDS011;54397;47.506;19.158;2023-02-08T16:50:36;22.67;;;11.17;;
67571;SDS011;54397;47.506;19.158;2023-02-08T16:54:02;15.70;;;9.57;;
67571;SDS011;54397;47.506;19.158;2023-02-08T16:57:40;18.37;;;10.27;;
67571;SDS011;54397;47.506;19.158;2023-02-08T17:01:05;17.00;;;10.67;;
67571;SDS011;54397;47.506;19.158;2023-02-08T17:04:28;19.93;;;11.77;;
67571;SDS011;54397;47.506;19.158;2023-02-08T17:07:52;23.33;;;12.50;;
67571;SDS011;54397;47.506;19.158;2023-02-08T17:11:14;22.17;;;11.57;;
67571;SDS011;54397;47.506;19.158;2023-02-08T17:14:35;22.33;;;11.70;;
67571;SDS011;54397;47.506;19.158;2023-02-08T17:17:57;19.70;;;11.90;;
67571;SDS011;54397;47.506;19.158;2023-02-08T17:21:19;18.70;;;10.50;;
67571;SDS011;54397;47.506;19.158;2023-02-08T17:24:45;22.03;;;11.33;;
67571;SDS011;54397;47.506;19.158;2023-02-08T17:28:10;19.67;;;10.90;;
67571;SDS011;54397;47.506;19.158;2023-02-08T17:31:37;24.97;;;12.83;;
67571;SDS011;54397;47.506;19.158;2023-02-08T17:34:59;20.73;;;12.57;;
67571;SDS011;54397;47.506;19.158;2023-02-08T17:38:22;24.37;;;13.27;;
67571;SDS011;54397;47.506;19.158;2023-02-08T17:41:45;19.50;;;11.97;;
67571;SDS011;54397;47.506;19.158;2023-02-08T17:45:07;22.10;;;12.80;;
67571;SDS011;54397;47.506;19.158;2023-02-08T17:48:30;24.57;;;13.27;;
67571;SDS011;54397;47.506;19.158;2023-02-08T17:51:55;22.90;;;12.90;;
67571;SDS011;54397;47.506;19.158;2023-02-08T17:55:17;19.23;;;11.17;;
67571;SDS011;54397;47.506;19.158;2023-02-08T17:58:42;20.60;;;11.30;;
67571;SDS011;54397;47.506;19.158;2023-02-08T18:02:07;16.30;;;10.30;;
67571;SDS011;54397;47.506;19.158;2023-02-08T18:05:32;17.53;;;10.40;;
67571;SDS011;54397;47.506;19.158;2023-02-08T18:08:54;19.33;;;10.73;;
67571;SDS011;54397;47.506;19.158;2023-02-08T18:12:16;19.47;;;10.17;;
67571;SDS011;54397;47.506;19.158;2023-02-08T18:15:40;20.73;;;11.13;;
67571;SDS011;54397;47.506;19.158;2023-02-08T18:19:02;20.23;;;11.60;;
67571;SDS011;54397;47.506;19.158;2023-02-08T18:22:26;16.23;;;10.73;;
67571;SDS011;54397;47.506;19.158;2023-02-08T18:25:48;19.30;;;10.70;;
67571;SDS011;54397;47.506;19.158;2023-02-08T18:29:09;21.50;;;10.73;;
67571;SDS011;54397;47.506;19.158;2023-02-08T18:32:33;20.87;;;11.17;;
67571;SDS011;54397;47.506;19.158;2023-02-08T18:35:55;19.33;;;9.73;;
67571;SDS011;54397;47.506;19.158;2023-02-08T18:39:19;16.20;;;8.97;;
67571;SDS011;54397;47.506;19.158;2023-02-08T18:42:46;17.40;;;9.60;;
67571;SDS011;54397;47.506;19.158;2023-02-08T18:46:09;21.43;;;10.70;;
67571;SDS011;54397;47.506;19.158;2023-02-08T18:49:34;25.97;;;11.07;;
67571;SDS011;54397;47.506;19.158;2023-02-08T18:53:01;21.17;;;10.60;;
67571;SDS011;54397;47.506;19.158;2023-02-08T18:56:23;23.63;;;12.50;;
67571;SDS011;54397;47.506;19.158;2023-02-08T18:59:46;24.43;;;13.27;;
67571;SDS011;54397;47.506;19.158;2023-02-08T19:03:08;22.13;;;12.33;;
67571;SDS011;54397;47.506;19.158;2023-02-08T19:06:30;25.37;;;13.20;;
67571;SDS011;54397;47.506;19.158;2023-02-08T19:09:55;21.43;;;11.50;;
67571;SDS011;54397;47.506;19.158;2023-02-08T19:13:16;18.27;;;11.03;;
67571;SDS011;54397;47.506;19.158;2023-02-08T19:16:38;17.93;;;10.17;;
67571;SDS011;54397;47.506;19.158;2023-02-08T19:20:03;17.37;;;10.40;;
67571;SDS011;54397;47.506;19.158;2023-02-08T19:23:25;17.83;;;10.43;;
67571;SDS011;54397;47.506;19.158;2023-02-08T19:26:46;17.37;;;10.67;;
67571;SDS011;54397;47.506;19.158;2023-02-08T19:30:08;21.00;;;10.70;;
67571;SDS011;54397;47.506;19.158;2023-02-08T19:33:30;18.83;;;10.70;;
67571;SDS011;54397;47.506;19.158;2023-02-08T19:36:52;21.87;;;11.27;;
67571;SDS011;54397;47.506;19.158;2023-02-08T19:40:14;19.67;;;10.80;;
67571;SDS011;54397;47.506;19.158;2023-02-08T19:43:41;19.73;;;10.63;;
67571;SDS011;54397;47.506;19.158;2023-02-08T19:47:06;18.50;;;10.67;;
67571;SDS011;54397;47.506;19.158;2023-02-08T19:50:27;17.63;;;11.17;;
67571;SDS011;54397;47.506;19.158;2023-02-08T19:53:52;21.50;;;11.07;;
67571;SDS011;54397;47.506;19.158;2023-02-08T19:57:14;22.70;;;11.77;;
67571;SDS011;54397;47.506;19.158;2023-02-08T20:00:36;21.10;;;11.27;;
67571;SDS011;54397;47.506;19.158;2023-02-08T20:03:58;27.70;;;14.37;;
67571;SDS011;54397;47.506;19.158;2023-02-08T20:07:19;21.80;;;11.77;;
67571;SDS011;54397;47.506;19.158;2023-02-08T20:10:43;17.90;;;11.30;;
67571;SDS011;54397;47.506;19.158;2023-02-08T20:14:10;20.10;;;11.20;;
67571;SDS011;54397;47.506;19.158;2023-02-08T20:17:35;17.77;;;10.90;;
67571;SDS011;54397;47.506;19.158;2023-02-08T20:20:59;19.70;;;10.73;;
67571;SDS011;54397;47.506;19.158;2023-02-08T20:24:22;17.40;;;10.50;;
67571;SDS011;54397;47.506;19.158;2023-02-08T20:27:46;20.63;;;10.50;;
67571;SDS011;54397;47.506;19.158;2023-02-08T20:31:08;18.63;;;9.77;;
67571;SDS011;54397;47.506;19.158;2023-02-08T20:34:31;21.00;;;11.53;;
67571;SDS011;54397;47.506;19.158;2023-02-08T20:37:53;20.50;;;11.67;;
67571;SDS011;54397;47.506;19.158;2023-02-08T20:41:15;19.23;;;11.67;;
67571;SDS011;54397;47.506;19.158;2023-02-08T20:44:39;23.50;;;12.53;;
67571;SDS011;54397;47.506;19.158;2023-02-08T20:48:01;19.60;;;11.30;;
67571;SDS011;54397;47.506;19.158;2023-02-08T20:51:23;18.57;;;11.07;;
67571;SDS011;54397;47.506;19.158;2023-02-08T20:54:48;21.67;;;11.50;;
67571;SDS011;54397;47.506;19.158;2023-02-08T20:58:12;18.07;;;10.67;;
67571;SDS011;54397;47.506;19.158;2023-02-08T21:01:38;24.47;;;12.40;;
67571;SDS011;54397;47.506;19.158;2023-02-08T21:05:02;24.00;;;12.43;;
67571;SDS011;54397;47.506;19.158;2023-02-08T21:08:26;21.33;;;11.80;;
67571;SDS011;54397;47.506;19.158;2023-02-08T21:11:49;23.43;;;12.80;;
67571;SDS011;54397;47.506;19.158;2023-02-08T21:15:11;28.67;;;12.53;;
67571;SDS011;54397;47.506;19.158;2023-02-08T21:18:33;22.27;;;11.77;;
67571;SDS011;54397;47.506;19.158;2023-02-08T21:21:58;20.67;;;11.73;;
67571;SDS011;54397;47.506;19.158;2023-02-08T21:25:24;30.17;;;15.13;;
67571;SDS011;54397;47.506;19.158;2023-02-08T21:28:52;28.17;;;14.80;;
67571;SDS011;54397;47.506;19.158;2023-02-08T21:32:16;30.13;;;13.77;;
67571;SDS011;54397;47.506;19.158;2023-02-08T21:35:39;25.53;;;14.40;;
67571;SDS011;54397;47.506;19.158;2023-02-08T21:39:04;27.33;;;14.60;;
67571;SDS011;54397;47.506;19.158;2023-02-08T21:42:26;27.40;;;15.53;;
67571;SDS011;54397;47.506;19.158;2023-02-08T21:45:47;29.73;;;16.13;;
67571;SDS011;54397;47.506;19.158;2023-02-08T21:49:12;26.87;;;15.40;;
67571;SDS011;54397;47.506;19.158;2023-02-08T21:52:52;31.73;;;17.17;;
67571;SDS011;54397;47.506;19.158;2023-02-08T21:56:32;31.13;;;18.20;;
67571;SDS011;54397;47.506;19.158;2023-02-08T21:59:58;21.40;;;13.00;;
67571;SDS011;54397;47.506;19.158;2023-02-08T22:03:25;28.08;;;12.52;;
67571;SDS011;54397;47.506;19.158;2023-02-08T22:06:47;23.33;;;12.53;;
67571;SDS011;54397;47.506;19.158;2023-02-08T22:10:12;21.67;;;13.03;;
67571;SDS011;54397;47.506;19.158;2023-02-08T22:13:37;27.10;;;14.37;;
67571;SDS011;54397;47.506;19.158;2023-02-08T22:16:59;31.20;;;15.73;;
67571;SDS011;54397;47.506;19.158;2023-02-08T22:20:24;30.90;;;17.40;;
67571;SDS011;54397;47.506;19.158;2023-02-08T22:23:46;33.20;;;16.57;;